sensor_id;sensor_type;location;lat;lon;timestamp;temperature;humidity
23717;DHT22;22094;52.130;5.598;2023-04-03T00:01:29;2.50;99.90
23717;DHT22;22094;52.130;5.598;2023-04-03T00:03:55;2.40;99.90
23717;DHT22;22094;52.130;5.598;2023-04-03T00:06:21;2.80;99.90
23717;DHT22;22094;52.130;5.598;2023-04-03T00:08:47;2.30;99.90
23717;DHT22;22094;52.130;5.598;2023-04-03T00:11:13;2.40;99.90
23717;DHT22;22094;52.130;5.598;2023-04-03T00:13:39;2.30;99.90
23717;DHT22;22094;52.130;5.598;2023-04-03T00:16:06;2.40;99.90
23717;DHT22;22094;52.130;5.598;2023-04-03T00:18:32;2.40;99.90
23717;DHT22;22094;52.130;5.598;2023-04-03T00:20:57;2.40;99.90
23717;DHT22;22094;52.130;5.598;2023-04-03T00:23:23;2.40;99.90
23717;DHT22;22094;52.130;5.598;2023-04-03T00:25:51;2.40;99.90
23717;DHT22;22094;52.130;5.598;2023-04-03T00:28:17;2.40;99.90
23717;DHT22;22094;52.130;5.598;2023-04-03T00:30:42;2.40;99.90
23717;DHT22;22094;52.130;5.598;2023-04-03T00:33:11;2.40;99.90
23717;DHT22;22094;52.130;5.598;2023-04-03T00:35:37;2.40;99.90
23717;DHT22;22094;52.130;5.598;2023-04-03T00:38:03;2.30;99.90
23717;DHT22;22094;52.130;5.598;2023-04-03T00:40:37;2.30;99.90
23717;DHT22;22094;52.130;5.598;2023-04-03T00:43:16;2.30;99.90
23717;DHT22;22094;52.130;5.598;2023-04-03T00:45:44;2.30;99.90
23717;DHT22;22094;52.130;5.598;2023-04-03T00:48:15;2.30;99.90
23717;DHT22;22094;52.130;5.598;2023-04-03T00:50:43;2.40;99.90
23717;DHT22;22094;52.130;5.598;2023-04-03T00:53:13;2.40;99.90
23717;DHT22;22094;52.130;5.598;2023-04-03T00:55:39;2.40;99.90
23717;DHT22;22094;52.130;5.598;2023-04-03T00:58:07;2.30;99.90
23717;DHT22;22094;52.130;5.598;2023-04-03T01:00:34;2.30;99.90
23717;DHT22;22094;52.130;5.598;2023-04-03T01:03:01;2.20;99.90
23717;DHT22;22094;52.130;5.598;2023-04-03T01:05:26;2.30;99.90
23717;DHT22;22094;52.130;5.598;2023-04-03T01:07:52;2.20;99.90
23717;DHT22;22094;52.130;5.598;2023-04-03T01:10:19;2.20;99.90
23717;DHT22;22094;52.130;5.598;2023-04-03T01:12:48;2.30;99.90
23717;DHT22;22094;52.130;5.598;2023-04-03T01:15:18;2.30;99.90
23717;DHT22;22094;52.130;5.598;2023-04-03T01:17:47;2.20;99.90
23717;DHT22;22094;52.130;5.598;2023-04-03T01:25:37;2.10;99.90
23717;DHT22;22094;52.130;5.598;2023-04-03T01:28:04;2.60;99.90
23717;DHT22;22094;52.130;5.598;2023-04-03T01:30:47;2.10;99.90
23717;DHT22;22094;52.130;5.598;2023-04-03T01:33:14;2.00;99.90
23717;DHT22;22094;52.130;5.598;2023-04-03T01:35:39;2.00;99.90
23717;DHT22;22094;52.130;5.598;2023-04-03T01:38:05;2.00;99.90
23717;DHT22;22094;52.130;5.598;2023-04-03T01:40:31;1.90;99.90
23717;DHT22;22094;52.130;5.598;2023-04-03T01:42:56;1.90;99.90
23717;DHT22;22094;52.130;5.598;2023-04-03T01:45:22;1.90;99.90
23717;DHT22;22094;52.130;5.598;2023-04-03T01:47:47;1.90;99.90
23717;DHT22;22094;52.130;5.598;2023-04-03T01:50:13;1.80;99.90
23717;DHT22;22094;52.130;5.598;2023-04-03T01:52:39;1.80;99.90
23717;DHT22;22094;52.130;5.598;2023-04-03T01:55:05;1.80;99.90
23717;DHT22;22094;52.130;5.598;2023-04-03T01:57:31;1.80;99.90
23717;DHT22;22094;52.130;5.598;2023-04-03T01:59:56;1.80;99.90
23717;DHT22;22094;52.130;5.598;2023-04-03T02:02:22;1.80;99.90
23717;DHT22;22094;52.130;5.598;2023-04-03T02:04:47;1.60;99.90
23717;DHT22;22094;52.130;5.598;2023-04-03T02:07:13;1.60;99.90
23717;DHT22;22094;52.130;5.598;2023-04-03T02:09:38;1.60;99.90
23717;DHT22;22094;52.130;5.598;2023-04-03T02:12:04;1.80;99.90
23717;DHT22;22094;52.130;5.598;2023-04-03T02:14:29;1.70;99.90
23717;DHT22;22094;52.130;5.598;2023-04-03T02:16:55;1.60;99.90
23717;DHT22;22094;52.130;5.598;2023-04-03T02:19:21;1.50;99.90
23717;DHT22;22094;52.130;5.598;2023-04-03T02:21:46;1.50;99.90
23717;DHT22;22094;52.130;5.598;2023-04-03T02:24:12;1.40;99.90
23717;DHT22;22094;52.130;5.598;2023-04-03T02:26:37;1.40;99.90
23717;DHT22;22094;52.130;5.598;2023-04-03T02:29:03;1.30;99.90
23717;DHT22;22094;52.130;5.598;2023-04-03T02:31:29;1.30;99.90
23717;DHT22;22094;52.130;5.598;2023-04-03T02:33:54;1.30;99.90
23717;DHT22;22094;52.130;5.598;2023-04-03T02:36:20;1.20;99.90
23717;DHT22;22094;52.130;5.598;2023-04-03T02:38:46;1.20;99.90
23717;DHT22;22094;52.130;5.598;2023-04-03T02:41:12;1.20;99.90
23717;DHT22;22094;52.130;5.598;2023-04-03T02:43:39;1.10;99.90
23717;DHT22;22094;52.130;5.598;2023-04-03T02:46:05;1.10;99.90
23717;DHT22;22094;52.130;5.598;2023-04-03T02:48:31;1.10;99.90
23717;DHT22;22094;52.130;5.598;2023-04-03T02:50:57;1.10;99.90
23717;DHT22;22094;52.130;5.598;2023-04-03T02:53:23;1.00;99.90
23717;DHT22;22094;52.130;5.598;2023-04-03T02:55:48;1.00;99.90
23717;DHT22;22094;52.130;5.598;2023-04-03T02:58:14;1.00;99.90
23717;DHT22;22094;52.130;5.598;2023-04-03T03:00:40;1.40;99.90
23717;DHT22;22094;52.130;5.598;2023-04-03T03:03:05;1.00;99.90
23717;DHT22;22094;52.130;5.598;2023-04-03T03:05:32;1.10;99.90
23717;DHT22;22094;52.130;5.598;2023-04-03T03:07:57;1.10;99.90
23717;DHT22;22094;52.130;5.598;2023-04-03T03:10:23;1.20;99.90
23717;DHT22;22094;52.130;5.598;2023-04-03T03:12:49;1.20;99.90
23717;DHT22;22094;52.130;5.598;2023-04-03T03:15:15;1.30;99.90
23717;DHT22;22094;52.130;5.598;2023-04-03T03:17:42;1.20;99.90
23717;DHT22;22094;52.130;5.598;2023-04-03T03:20:08;1.80;99.90
23717;DHT22;22094;52.130;5.598;2023-04-03T03:22:35;1.20;99.90
23717;DHT22;22094;52.130;5.598;2023-04-03T03:25:02;1.20;99.90
23717;DHT22;22094;52.130;5.598;2023-04-03T03:27:28;1.20;99.90
23717;DHT22;22094;52.130;5.598;2023-04-03T03:29:54;1.60;99.90
23717;DHT22;22094;52.130;5.598;2023-04-03T03:32:19;1.10;99.90
23717;DHT22;22094;52.130;5.598;2023-04-03T03:34:45;1.10;99.90
23717;DHT22;22094;52.130;5.598;2023-04-03T03:37:11;1.00;99.90
23717;DHT22;22094;52.130;5.598;2023-04-03T03:39:36;1.00;99.90
23717;DHT22;22094;52.130;5.598;2023-04-03T03:42:02;1.00;99.90
23717;DHT22;22094;52.130;5.598;2023-04-03T03:44:27;0.90;99.90
23717;DHT22;22094;52.130;5.598;2023-04-03T03:46:54;1.00;99.90
23717;DHT22;22094;52.130;5.598;2023-04-03T03:49:20;1.00;99.90
23717;DHT22;22094;52.130;5.598;2023-04-03T03:51:46;1.00;99.90
23717;DHT22;22094;52.130;5.598;2023-04-03T03:54:12;0.90;99.90
23717;DHT22;22094;52.130;5.598;2023-04-03T03:56:38;1.00;99.90
23717;DHT22;22094;52.130;5.598;2023-04-03T03:59:04;0.90;99.90
23717;DHT22;22094;52.130;5.598;2023-04-03T04:01:34;0.80;99.90
23717;DHT22;22094;52.130;5.598;2023-04-03T04:04:09;0.90;99.90
23717;DHT22;22094;52.130;5.598;2023-04-03T04:06:35;0.90;99.90
23717;DHT22;22094;52.130;5.598;2023-04-03T04:09:01;0.90;99.90
23717;DHT22;22094;52.130;5.598;2023-04-03T04:11:26;0.90;99.90
23717;DHT22;22094;52.130;5.598;2023-04-03T04:13:53;0.90;99.90
23717;DHT22;22094;52.130;5.598;2023-04-03T04:16:18;0.90;99.90
23717;DHT22;22094;52.130;5.598;2023-04-03T04:18:44;0.80;99.90
23717;DHT22;22094;52.130;5.598;2023-04-03T04:21:09;0.70;99.90
23717;DHT22;22094;52.130;5.598;2023-04-03T04:23:35;0.80;99.90
23717;DHT22;22094;52.130;5.598;2023-04-03T04:26:01;0.80;99.90
23717;DHT22;22094;52.130;5.598;2023-04-03T04:28:27;0.80;99.90
23717;DHT22;22094;52.130;5.598;2023-04-03T04:30:52;0.80;99.90
23717;DHT22;22094;52.130;5.598;2023-04-03T04:33:18;0.70;99.90
23717;DHT22;22094;52.130;5.598;2023-04-03T04:35:43;0.70;99.90
23717;DHT22;22094;52.130;5.598;2023-04-03T04:38:09;0.70;99.90
23717;DHT22;22094;52.130;5.598;2023-04-03T04:40:35;0.60;99.90
23717;DHT22;22094;52.130;5.598;2023-04-03T04:43:01;0.60;99.90
23717;DHT22;22094;52.130;5.598;2023-04-03T04:45:26;0.60;99.90
23717;DHT22;22094;52.130;5.598;2023-04-03T04:47:55;0.60;99.90
23717;DHT22;22094;52.130;5.598;2023-04-03T04:50:21;0.70;99.90
23717;DHT22;22094;52.130;5.598;2023-04-03T04:52:46;0.70;99.90
23717;DHT22;22094;52.130;5.598;2023-04-03T04:55:12;0.70;99.90
23717;DHT22;22094;52.130;5.598;2023-04-03T04:57:37;0.70;99.90
23717;DHT22;22094;52.130;5.598;2023-04-03T05:00:07;0.70;99.90
23717;DHT22;22094;52.130;5.598;2023-04-03T05:02:35;0.40;99.90
23717;DHT22;22094;52.130;5.598;2023-04-03T05:05:03;1.20;99.90
23717;DHT22;22094;52.130;5.598;2023-04-03T05:07:29;0.60;99.90
23717;DHT22;22094;52.130;5.598;2023-04-03T05:09:55;0.60;99.90
23717;DHT22;22094;52.130;5.598;2023-04-03T05:12:20;0.60;99.90
23717;DHT22;22094;52.130;5.598;2023-04-03T05:14:46;0.50;99.90
23717;DHT22;22094;52.130;5.598;2023-04-03T05:17:12;0.50;99.90
23717;DHT22;22094;52.130;5.598;2023-04-03T05:19:37;0.50;99.90
23717;DHT22;22094;52.130;5.598;2023-04-03T05:22:03;0.50;99.90
23717;DHT22;22094;52.130;5.598;2023-04-03T05:24:28;0.50;99.90
23717;DHT22;22094;52.130;5.598;2023-04-03T05:26:54;0.50;99.90
23717;DHT22;22094;52.130;5.598;2023-04-03T05:29:21;0.50;99.90
23717;DHT22;22094;52.130;5.598;2023-04-03T05:31:48;0.50;99.90
23717;DHT22;22094;52.130;5.598;2023-04-03T05:34:14;0.50;99.90
23717;DHT22;22094;52.130;5.598;2023-04-03T05:36:40;0.60;99.90
23717;DHT22;22094;52.130;5.598;2023-04-03T05:39:05;0.50;99.90
23717;DHT22;22094;52.130;5.598;2023-04-03T05:41:31;0.50;99.90
23717;DHT22;22094;52.130;5.598;2023-04-03T05:43:57;0.50;99.90
23717;DHT22;22094;52.130;5.598;2023-04-03T05:46:22;0.80;99.90
23717;DHT22;22094;52.130;5.598;2023-04-03T05:48:48;0.80;99.90
23717;DHT22;22094;52.130;5.598;2023-04-03T05:51:22;1.00;99.90
23717;DHT22;22094;52.130;5.598;2023-04-03T05:53:58;1.30;99.90
23717;DHT22;22094;52.130;5.598;2023-04-03T05:56:24;1.40;99.90
23717;DHT22;22094;52.130;5.598;2023-04-03T05:58:50;3.00;99.90
23717;DHT22;22094;52.130;5.598;2023-04-03T06:01:16;1.50;99.90
23717;DHT22;22094;52.130;5.598;2023-04-03T06:03:41;1.50;99.90
23717;DHT22;22094;52.130;5.598;2023-04-03T06:06:07;1.70;99.90
23717;DHT22;22094;52.130;5.598;2023-04-03T06:08:33;1.70;99.90
23717;DHT22;22094;52.130;5.598;2023-04-03T06:10:59;1.70;99.90
23717;DHT22;22094;52.130;5.598;2023-04-03T06:13:25;3.70;99.90
23717;DHT22;22094;52.130;5.598;2023-04-03T06:15:50;1.30;99.90
23717;DHT22;22094;52.130;5.598;2023-04-03T06:18:16;1.30;99.90
23717;DHT22;22094;52.130;5.598;2023-04-03T06:20:41;1.20;99.90
23717;DHT22;22094;52.130;5.598;2023-04-03T06:23:07;1.30;99.90
23717;DHT22;22094;52.130;5.598;2023-04-03T06:27:58;1.80;99.90
23717;DHT22;22094;52.130;5.598;2023-04-03T06:30:24;2.30;99.90
23717;DHT22;22094;52.130;5.598;2023-04-03T06:32:50;1.70;99.90
23717;DHT22;22094;52.130;5.598;2023-04-03T06:35:15;1.60;99.90
23717;DHT22;22094;52.130;5.598;2023-04-03T06:37:41;4.20;99.90
23717;DHT22;22094;52.130;5.598;2023-04-03T06:40:09;1.40;99.90
23717;DHT22;22094;52.130;5.598;2023-04-03T06:42:38;1.70;99.90
23717;DHT22;22094;52.130;5.598;2023-04-03T06:45:04;1.40;99.90
23717;DHT22;22094;52.130;5.598;2023-04-03T06:49:56;1.70;99.90
23717;DHT22;22094;52.130;5.598;2023-04-03T06:54:48;1.60;99.90
23717;DHT22;22094;52.130;5.598;2023-04-03T06:57:14;2.10;99.90
23717;DHT22;22094;52.130;5.598;2023-04-03T06:59:40;-0.90;99.90
23717;DHT22;22094;52.130;5.598;2023-04-03T07:02:06;-0.70;99.90
23717;DHT22;22094;52.130;5.598;2023-04-03T07:06:58;3.80;99.90
23717;DHT22;22094;52.130;5.598;2023-04-03T07:09:23;2.00;99.90
23717;DHT22;22094;52.130;5.598;2023-04-03T07:11:49;2.30;99.90
23717;DHT22;22094;52.130;5.598;2023-04-03T07:14:14;2.80;99.90
23717;DHT22;22094;52.130;5.598;2023-04-03T07:16:40;2.30;99.90
23717;DHT22;22094;52.130;5.598;2023-04-03T07:19:05;2.20;99.90
23717;DHT22;22094;52.130;5.598;2023-04-03T07:21:31;2.30;99.90
23717;DHT22;22094;52.130;5.598;2023-04-03T07:23:57;3.60;99.90
23717;DHT22;22094;52.130;5.598;2023-04-03T07:26:22;2.80;99.90
23717;DHT22;22094;52.130;5.598;2023-04-03T07:28:49;2.90;99.90
23717;DHT22;22094;52.130;5.598;2023-04-03T07:31:15;3.20;99.90
23717;DHT22;22094;52.130;5.598;2023-04-03T07:33:42;3.40;99.90
23717;DHT22;22094;52.130;5.598;2023-04-03T07:36:10;3.80;99.90
23717;DHT22;22094;52.130;5.598;2023-04-03T07:38:36;4.00;99.90
23717;DHT22;22094;52.130;5.598;2023-04-03T07:41:03;4.00;99.90
23717;DHT22;22094;52.130;5.598;2023-04-03T07:43:29;4.10;99.90
23717;DHT22;22094;52.130;5.598;2023-04-03T07:45:55;6.00;99.90
23717;DHT22;22094;52.130;5.598;2023-04-03T07:48:22;4.60;99.90
23717;DHT22;22094;52.130;5.598;2023-04-03T07:58:15;4.90;99.90
23717;DHT22;22094;52.130;5.598;2023-04-03T08:05:44;5.50;99.90
23717;DHT22;22094;52.130;5.598;2023-04-03T08:13:04;6.50;99.90
23717;DHT22;22094;52.130;5.598;2023-04-03T08:32:34;6.20;99.90
23717;DHT22;22094;52.130;5.598;2023-04-03T08:35:00;8.50;99.90
23717;DHT22;22094;52.130;5.598;2023-04-03T08:39:52;8.40;99.90
23717;DHT22;22094;52.130;5.598;2023-04-03T08:42:41;6.60;99.90
23717;DHT22;22094;52.130;5.598;2023-04-03T08:57:48;7.00;99.90
23717;DHT22;22094;52.130;5.598;2023-04-03T09:05:15;7.00;99.90
23717;DHT22;22094;52.130;5.598;2023-04-03T09:08:12;7.00;99.90
23717;DHT22;22094;52.130;5.598;2023-04-03T09:10:40;7.70;99.90
23717;DHT22;22094;52.130;5.598;2023-04-03T09:23:41;7.50;99.90
23717;DHT22;22094;52.130;5.598;2023-04-03T09:26:26;7.60;99.90
23717;DHT22;22094;52.130;5.598;2023-04-03T09:28:59;9.40;99.90
23717;DHT22;22094;52.130;5.598;2023-04-03T09:31:29;9.00;99.90
23717;DHT22;22094;52.130;5.598;2023-04-03T09:33:59;7.80;99.90
23717;DHT22;22094;52.130;5.598;2023-04-03T09:36:45;7.90;99.90
23717;DHT22;22094;52.130;5.598;2023-04-03T09:39:14;10.90;99.90
23717;DHT22;22094;52.130;5.598;2023-04-03T09:44:24;8.10;99.90
23717;DHT22;22094;52.130;5.598;2023-04-03T09:49:17;11.30;99.90
23717;DHT22;22094;52.130;5.598;2023-04-03T09:54:33;8.30;99.90
23717;DHT22;22094;52.130;5.598;2023-04-03T09:57:15;8.30;99.90
23717;DHT22;22094;52.130;5.598;2023-04-03T09:59:47;8.40;99.90
23717;DHT22;22094;52.130;5.598;2023-04-03T10:07:31;8.90;99.00
23717;DHT22;22094;52.130;5.598;2023-04-03T10:09:58;8.90;99.90
23717;DHT22;22094;52.130;5.598;2023-04-03T10:14:57;8.00;98.40
23717;DHT22;22094;52.130;5.598;2023-04-03T10:17:41;9.10;97.70
23717;DHT22;22094;52.130;5.598;2023-04-03T10:20:27;9.00;98.30
23717;DHT22;22094;52.130;5.598;2023-04-03T10:23:21;9.30;96.60
23717;DHT22;22094;52.130;5.598;2023-04-03T10:31:21;9.40;97.60
23717;DHT22;22094;52.130;5.598;2023-04-03T10:46:55;9.30;95.50
23717;DHT22;22094;52.130;5.598;2023-04-03T10:52:32;9.40;95.40
23717;DHT22;22094;52.130;5.598;2023-04-03T10:59:58;8.60;95.90
23717;DHT22;22094;52.130;5.598;2023-04-03T11:05:04;9.70;95.50
23717;DHT22;22094;52.130;5.598;2023-04-03T11:07:39;9.70;95.50
23717;DHT22;22094;52.130;5.598;2023-04-03T11:10:21;10.10;97.10
23717;DHT22;22094;52.130;5.598;2023-04-03T11:12:52;9.70;94.90
23717;DHT22;22094;52.130;5.598;2023-04-03T11:15:22;9.50;95.20
23717;DHT22;22094;52.130;5.598;2023-04-03T11:17:54;9.70;95.40
23717;DHT22;22094;52.130;5.598;2023-04-03T11:25:36;9.60;95.00
23717;DHT22;22094;52.130;5.598;2023-04-03T11:28:06;9.60;94.90
23717;DHT22;22094;52.130;5.598;2023-04-03T11:31:15;9.50;94.40
23717;DHT22;22094;52.130;5.598;2023-04-03T11:39:24;9.80;94.30
23717;DHT22;22094;52.130;5.598;2023-04-03T11:44:35;10.00;95.50
23717;DHT22;22094;52.130;5.598;2023-04-03T11:47:08;10.00;95.50
23717;DHT22;22094;52.130;5.598;2023-04-03T11:49:53;11.60;96.00
23717;DHT22;22094;52.130;5.598;2023-04-03T12:26:44;10.00;94.80
23717;DHT22;22094;52.130;5.598;2023-04-03T12:31:50;10.60;93.90
23717;DHT22;22094;52.130;5.598;2023-04-03T12:39:53;10.60;92.90
23717;DHT22;22094;52.130;5.598;2023-04-03T12:45:25;10.50;93.50
23717;DHT22;22094;52.130;5.598;2023-04-03T12:47:53;10.80;93.90
23717;DHT22;22094;52.130;5.598;2023-04-03T12:50:28;10.60;92.40
23717;DHT22;22094;52.130;5.598;2023-04-03T13:00:34;10.60;93.40
23717;DHT22;22094;52.130;5.598;2023-04-03T13:03:02;11.20;93.30
23717;DHT22;22094;52.130;5.598;2023-04-03T13:05:30;10.40;93.10
23717;DHT22;22094;52.130;5.598;2023-04-03T13:08:07;10.70;93.20
23717;DHT22;22094;52.130;5.598;2023-04-03T13:10:47;10.70;93.80
23717;DHT22;22094;52.130;5.598;2023-04-03T13:13:15;10.70;93.60
23717;DHT22;22094;52.130;5.598;2023-04-03T13:15:46;10.70;93.40
23717;DHT22;22094;52.130;5.598;2023-04-03T13:23:29;10.90;93.50
23717;DHT22;22094;52.130;5.598;2023-04-03T13:34:26;10.10;91.40
23717;DHT22;22094;52.130;5.598;2023-04-03T13:39:38;11.10;92.30
23717;DHT22;22094;52.130;5.598;2023-04-03T13:42:28;11.80;93.00
23717;DHT22;22094;52.130;5.598;2023-04-03T13:45:20;13.20;93.30
23717;DHT22;22094;52.130;5.598;2023-04-03T13:47:47;12.40;93.30
23717;DHT22;22094;52.130;5.598;2023-04-03T13:50:20;12.10;92.70
23717;DHT22;22094;52.130;5.598;2023-04-03T13:53:11;11.30;92.90
23717;DHT22;22094;52.130;5.598;2023-04-03T13:55:56;11.10;91.90
23717;DHT22;22094;52.130;5.598;2023-04-03T13:58:28;11.30;92.50
23717;DHT22;22094;52.130;5.598;2023-04-03T14:01:11;11.60;93.00
23717;DHT22;22094;52.130;5.598;2023-04-03T14:03:47;11.50;92.10
23717;DHT22;22094;52.130;5.598;2023-04-03T14:06:15;10.80;92.80
23717;DHT22;22094;52.130;5.598;2023-04-03T14:08:43;11.60;91.80
23717;DHT22;22094;52.130;5.598;2023-04-03T14:11:29;11.40;91.50
23717;DHT22;22094;52.130;5.598;2023-04-03T14:14:00;11.40;92.10
23717;DHT22;22094;52.130;5.598;2023-04-03T14:16:30;11.70;92.60
23717;DHT22;22094;52.130;5.598;2023-04-03T14:18:56;11.90;92.60
23717;DHT22;22094;52.130;5.598;2023-04-03T14:23:49;11.70;92.90
23717;DHT22;22094;52.130;5.598;2023-04-03T14:26:20;11.80;92.60
23717;DHT22;22094;52.130;5.598;2023-04-03T14:28:49;12.10;93.70
23717;DHT22;22094;52.130;5.598;2023-04-03T14:31:16;12.20;93.00
23717;DHT22;22094;52.130;5.598;2023-04-03T14:33:42;13.90;92.80
23717;DHT22;22094;52.130;5.598;2023-04-03T14:36:34;12.20;92.90
23717;DHT22;22094;52.130;5.598;2023-04-03T14:41:26;12.90;93.40
23717;DHT22;22094;52.130;5.598;2023-04-03T14:43:53;11.50;93.90
23717;DHT22;22094;52.130;5.598;2023-04-03T14:46:23;15.40;93.90
23717;DHT22;22094;52.130;5.598;2023-04-03T14:53:44;12.60;93.00
23717;DHT22;22094;52.130;5.598;2023-04-03T14:56:17;14.00;93.00
23717;DHT22;22094;52.130;5.598;2023-04-03T15:01:10;14.10;93.20
23717;DHT22;22094;52.130;5.598;2023-04-03T15:03:37;13.50;92.40
23717;DHT22;22094;52.130;5.598;2023-04-03T15:06:03;12.50;91.50
23717;DHT22;22094;52.130;5.598;2023-04-03T15:10:56;14.50;92.80
23717;DHT22;22094;52.130;5.598;2023-04-03T15:13:22;14.10;91.80
23717;DHT22;22094;52.130;5.598;2023-04-03T15:15:49;13.60;91.10
23717;DHT22;22094;52.130;5.598;2023-04-03T15:18:21;13.40;90.40
23717;DHT22;22094;52.130;5.598;2023-04-03T15:20:47;14.40;91.50
23717;DHT22;22094;52.130;5.598;2023-04-03T15:23:14;15.40;91.80
23717;DHT22;22094;52.130;5.598;2023-04-03T15:25:42;13.50;92.40
23717;DHT22;22094;52.130;5.598;2023-04-03T15:28:13;13.40;92.60
23717;DHT22;22094;52.130;5.598;2023-04-03T15:38:00;11.00;91.00
23717;DHT22;22094;52.130;5.598;2023-04-03T15:45:17;15.80;91.60
23717;DHT22;22094;52.130;5.598;2023-04-03T15:47:43;12.00;92.50
23717;DHT22;22094;52.130;5.598;2023-04-03T15:50:09;12.10;93.10
23717;DHT22;22094;52.130;5.598;2023-04-03T15:52:35;12.40;93.20
23717;DHT22;22094;52.130;5.598;2023-04-03T15:55:01;13.10;93.10
23717;DHT22;22094;52.130;5.598;2023-04-03T15:57:26;15.00;92.70
23717;DHT22;22094;52.130;5.598;2023-04-03T16:02:18;13.90;93.10
23717;DHT22;22094;52.130;5.598;2023-04-03T16:04:44;11.80;92.80
23717;DHT22;22094;52.130;5.598;2023-04-03T16:09:36;14.90;94.70
23717;DHT22;22094;52.130;5.598;2023-04-03T16:12:01;12.20;92.90
23717;DHT22;22094;52.130;5.598;2023-04-03T16:16:56;12.30;93.90
23717;DHT22;22094;52.130;5.598;2023-04-03T16:19:22;10.10;93.00
23717;DHT22;22094;52.130;5.598;2023-04-03T16:21:48;12.30;93.10
23717;DHT22;22094;52.130;5.598;2023-04-03T16:24:13;12.30;92.50
23717;DHT22;22094;52.130;5.598;2023-04-03T16:26:39;15.40;94.10
23717;DHT22;22094;52.130;5.598;2023-04-03T16:29:05;12.30;94.00
23717;DHT22;22094;52.130;5.598;2023-04-03T16:31:32;12.20;93.30
23717;DHT22;22094;52.130;5.598;2023-04-03T16:36:24;11.30;93.90
23717;DHT22;22094;52.130;5.598;2023-04-03T16:41:17;13.20;94.30
23717;DHT22;22094;52.130;5.598;2023-04-03T16:43:42;10.90;93.70
23717;DHT22;22094;52.130;5.598;2023-04-03T16:46:08;9.90;93.30
23717;DHT22;22094;52.130;5.598;2023-04-03T16:48:33;13.20;93.90
23717;DHT22;22094;52.130;5.598;2023-04-03T16:51:00;11.80;93.10
23717;DHT22;22094;52.130;5.598;2023-04-03T16:53:27;10.20;95.30
23717;DHT22;22094;52.130;5.598;2023-04-03T16:55:52;9.00;95.80
23717;DHT22;22094;52.130;5.598;2023-04-03T16:58:18;9.20;95.70
23717;DHT22;22094;52.130;5.598;2023-04-03T17:03:12;8.70;96.00
23717;DHT22;22094;52.130;5.598;2023-04-03T17:05:38;8.60;95.80
23717;DHT22;22094;52.130;5.598;2023-04-03T17:08:03;8.30;96.70
23717;DHT22;22094;52.130;5.598;2023-04-03T17:10:29;8.40;96.40
23717;DHT22;22094;52.130;5.598;2023-04-03T17:12:55;8.30;96.70
23717;DHT22;22094;52.130;5.598;2023-04-03T17:15:22;8.40;96.80
23717;DHT22;22094;52.130;5.598;2023-04-03T17:17:49;8.30;97.20
23717;DHT22;22094;52.130;5.598;2023-04-03T17:20:15;8.40;96.70
23717;DHT22;22094;52.130;5.598;2023-04-03T17:22:40;8.30;97.10
23717;DHT22;22094;52.130;5.598;2023-04-03T17:25:06;8.60;96.70
23717;DHT22;22094;52.130;5.598;2023-04-03T17:27:32;8.40;96.60
23717;DHT22;22094;52.130;5.598;2023-04-03T17:32:24;7.80;98.10
23717;DHT22;22094;52.130;5.598;2023-04-03T17:34:50;7.80;97.90
23717;DHT22;22094;52.130;5.598;2023-04-03T17:37:16;7.80;98.10
23717;DHT22;22094;52.130;5.598;2023-04-03T17:39:42;7.70;98.70
23717;DHT22;22094;52.130;5.598;2023-04-03T17:42:10;7.60;98.60
23717;DHT22;22094;52.130;5.598;2023-04-03T17:44:41;7.50;99.30
23717;DHT22;22094;52.130;5.598;2023-04-03T17:47:07;7.50;99.00
23717;DHT22;22094;52.130;5.598;2023-04-03T17:49:36;7.40;99.10
23717;DHT22;22094;52.130;5.598;2023-04-03T17:52:01;7.40;99.60
23717;DHT22;22094;52.130;5.598;2023-04-03T17:54:27;7.30;99.80
23717;DHT22;22094;52.130;5.598;2023-04-03T17:56:52;7.30;99.70
23717;DHT22;22094;52.130;5.598;2023-04-03T17:59:18;7.20;99.80
23717;DHT22;22094;52.130;5.598;2023-04-03T18:01:45;7.10;99.90
23717;DHT22;22094;52.130;5.598;2023-04-03T18:04:12;7.50;99.90
23717;DHT22;22094;52.130;5.598;2023-04-03T18:06:46;7.00;99.90
23717;DHT22;22094;52.130;5.598;2023-04-03T18:09:17;6.90;99.90
23717;DHT22;22094;52.130;5.598;2023-04-03T18:11:45;6.80;99.90
23717;DHT22;22094;52.130;5.598;2023-04-03T18:14:13;6.80;99.90
23717;DHT22;22094;52.130;5.598;2023-04-03T18:16:40;6.60;99.90
23717;DHT22;22094;52.130;5.598;2023-04-03T18:19:06;6.60;99.90
23717;DHT22;22094;52.130;5.598;2023-04-03T18:21:33;6.50;99.90
23717;DHT22;22094;52.130;5.598;2023-04-03T18:23:59;6.50;99.90
23717;DHT22;22094;52.130;5.598;2023-04-03T18:26:27;6.40;99.90
23717;DHT22;22094;52.130;5.598;2023-04-03T18:28:57;6.30;99.90
23717;DHT22;22094;52.130;5.598;2023-04-03T18:31:24;6.20;99.90
23717;DHT22;22094;52.130;5.598;2023-04-03T18:33:50;6.10;99.90
23717;DHT22;22094;52.130;5.598;2023-04-03T18:36:19;6.00;99.90
23717;DHT22;22094;52.130;5.598;2023-04-03T18:38:45;6.00;99.90
23717;DHT22;22094;52.130;5.598;2023-04-03T18:41:10;5.90;99.90
23717;DHT22;22094;52.130;5.598;2023-04-03T18:43:36;5.80;99.90
23717;DHT22;22094;52.130;5.598;2023-04-03T18:46:02;5.70;99.90
23717;DHT22;22094;52.130;5.598;2023-04-03T18:48:30;5.60;99.90
23717;DHT22;22094;52.130;5.598;2023-04-03T18:50:56;5.50;99.90
23717;DHT22;22094;52.130;5.598;2023-04-03T18:53:22;5.50;99.90
23717;DHT22;22094;52.130;5.598;2023-04-03T18:55:47;5.40;99.90
23717;DHT22;22094;52.130;5.598;2023-04-03T18:58:13;5.40;99.90
23717;DHT22;22094;52.130;5.598;2023-04-03T19:00:39;5.40;99.90
23717;DHT22;22094;52.130;5.598;2023-04-03T19:03:05;5.40;99.90
23717;DHT22;22094;52.130;5.598;2023-04-03T19:05:31;5.40;99.90
23717;DHT22;22094;52.130;5.598;2023-04-03T19:07:57;5.40;99.90
23717;DHT22;22094;52.130;5.598;2023-04-03T19:10:23;5.40;99.90
23717;DHT22;22094;52.130;5.598;2023-04-03T19:12:49;5.30;99.90
23717;DHT22;22094;52.130;5.598;2023-04-03T19:15:18;5.30;99.90
23717;DHT22;22094;52.130;5.598;2023-04-03T19:17:44;5.20;99.90
23717;DHT22;22094;52.130;5.598;2023-04-03T19:20:10;5.20;99.90
23717;DHT22;22094;52.130;5.598;2023-04-03T19:22:37;5.10;99.90
23717;DHT22;22094;52.130;5.598;2023-04-03T19:25:04;5.00;99.90
23717;DHT22;22094;52.130;5.598;2023-04-03T19:27:30;4.90;99.90
23717;DHT22;22094;52.130;5.598;2023-04-03T19:29:56;4.90;99.90
23717;DHT22;22094;52.130;5.598;2023-04-03T19:32:22;4.80;99.90
23717;DHT22;22094;52.130;5.598;2023-04-03T19:34:48;4.80;99.90
23717;DHT22;22094;52.130;5.598;2023-04-03T19:37:13;4.70;99.90
23717;DHT22;22094;52.130;5.598;2023-04-03T19:39:39;4.70;99.90
23717;DHT22;22094;52.130;5.598;2023-04-03T19:42:06;4.70;99.90
23717;DHT22;22094;52.130;5.598;2023-04-03T19:44:32;4.60;99.90
23717;DHT22;22094;52.130;5.598;2023-04-03T19:46:59;4.60;99.90
23717;DHT22;22094;52.130;5.598;2023-04-03T19:49:25;4.50;99.90
23717;DHT22;22094;52.130;5.598;2023-04-03T19:51:51;4.40;99.90
23717;DHT22;22094;52.130;5.598;2023-04-03T19:54:23;4.40;99.90
23717;DHT22;22094;52.130;5.598;2023-04-03T19:56:49;4.50;99.90
23717;DHT22;22094;52.130;5.598;2023-04-03T19:59:15;4.40;99.90